Starbuck, Minnesota
Current Conditions -  °F | °C
As of 11:13 AM on Thursday 30 Oct 2014 (Local Time) from KGHW Reporting Station
Scattered Clouds Scattered Clouds  
Wind Chill: 37°   Ceiling: Unl
Heat Index: 43°   Visibility: 10mi
Dew Point: 37°   Wind: 10mph
Humidity: 81%   Direction: 350°N
Pressure: 30.12"   Gusts: NA
Location:  45.61°N, 95.53°W
Report Text: KGHW 301613Z AUTO 35009KT 10SM SCT028 06/03 A3012 RMK AO2
Loading
Personal Weather Stations






























Interactive Weather Map
Tropical Storm Tracking
New forecast layout! Learn more

10-Day Weather Forecast

Advertisements
Track Severe Weather on mobile